Thursday, November 15, 2018, 9:08 PM EST
Back to Local

KMPV, Knapp State Airport

Location: Barre, VT, United States Lat: 44.2
Local Time: 9:08 PM EST ( 2:08 GMT) Lon: -72.567
Time Zone: US/Eastern Elev: 1164 ft

Show me the last for .
Show Decoded

2018-11-15 20:51 METAR KMPV 160151Z AUTO 07004KT 10SM CLR M07/M09 A3030 RMK AO2 SLP286 T10721094
                 =
2018-11-15 19:51 METAR KMPV 160051Z AUTO 00000KT 10SM CLR M06/M11 A3034 RMK AO2 SLP301 T10611106
                 =
2018-11-15 18:51 METAR KMPV 152351Z AUTO 17003KT 10SM CLR M06/M12 A3035 RMK AO2 SLP302 T10611117
                 11061 21078 56018 =
2018-11-15 17:51 METAR KMPV 152251Z AUTO 15003KT 10SM CLR M07/M10 A3036 RMK AO2 SLP306 T10671100
                 =
2018-11-15 16:51 METAR KMPV 152151Z AUTO 00000KT 10SM CLR M07/M11 A3036 RMK AO2 SLP309 T10721106
                 =
2018-11-15 15:51 METAR KMPV 152051Z AUTO 00000KT 10SM CLR M07/M11 A3040 RMK AO2 SLP321 T10671111
                 58019 =
2018-11-15 14:51 METAR KMPV 151951Z AUTO 07004KT 10SM CLR M07/M11 A3042 RMK AO2 SLP328 T10721111
                 =
2018-11-15 13:51 METAR KMPV 151851Z AUTO 10004KT 10SM CLR M07/M12 A3044 RMK AO2 SLP336 T10671117
                 =
2018-11-15 12:51 METAR KMPV 151751Z AUTO 05003KT 10SM CLR M08/M12 A3046 RMK AO2 SLP342 T10781117
                 11078 21156 58035 =
2018-11-15 11:51 METAR KMPV 151651Z AUTO 04003KT 10SM CLR M09/M13 A3050 RMK AO2 SLP355 T10891128
                 =
2018-11-15 10:51 METAR KMPV 151551Z AUTO 00000KT 10SM CLR M11/M12 A3053 RMK AO2 SLP369 T11061122
                 =
2018-11-15 09:51 METAR KMPV 151451Z AUTO 00000KT 10SM CLR M12/M13 A3057 RMK AO2 SLP380 T11221133
                 58007 =
2018-11-15 08:51 METAR KMPV 151351Z AUTO 00000KT 10SM CLR M14/M14 A3058 RMK AO2 SLP385 T11391139
                 =
2018-11-15 07:51 METAR KMPV 151251Z AUTO 00000KT 10SM CLR M14/M15 A3059 RMK AO2 SLP388 T11441150
                 =
2018-11-15 06:51 METAR KMPV 151151Z AUTO 00000KT 10SM CLR M15/M16 A3059 RMK AO2 SLP387 I1000
                 I6000 T11501161 11128 21156 51002 $ =
2018-11-15 05:51 METAR KMPV 151051Z AUTO 00000KT 10SM CLR M15/M16 A3058 RMK AO2 SLP385 I1000
                 T11501156 $ =
2018-11-15 04:51 METAR KMPV 150951Z AUTO 00000KT 10SM CLR M15/M16 A3059 RMK AO2 SLP389 T11501161
                 $ =
2018-11-15 03:51 METAR KMPV 150851Z AUTO 00000KT 10SM CLR M14/M16 A3058 RMK AO2 SLP385 T11441156
                 50004 $ =
2018-11-15 02:51 METAR KMPV 150751Z AUTO 00000KT 10SM CLR M14/M14 A3059 RMK AO2 SLP388 T11391144
                 $ =
2018-11-15 01:51 METAR KMPV 150651Z AUTO 17003KT 10SM CLR M14/M16 A3058 RMK AO2 SLP385 T11391156
                 $ =
2018-11-15 00:51 METAR KMPV 150551Z AUTO 00000KT 10SM CLR M14/M16 A3057 RMK AO2 SLP379 T11441156
                 11100 21150 53002 $ =
2018-11-14 23:51 METAR KMPV 150451Z AUTO 00000KT 10SM CLR M13/M15 A3057 RMK AO2 SLP378 T11281150
                 410671150 $ =
2018-11-14 22:51 METAR KMPV 150351Z AUTO 00000KT 10SM CLR M15/M16 A3055 RMK AO2 SLP373 T11501161
                 $ =
2018-11-14 21:51 METAR KMPV 150251Z AUTO 00000KT 10SM CLR M14/M16 A3056 RMK AO2 SLP377 T11391156
                 51017 =

Support USWX by starting your Amazon purchase here.